GVE weather

Gordonsville Municipal Airport
Gordonsville, Virginia, United States

Public forecast

Using degrees Fahrenheit for public forecast. Weather courtesy of forecast.io.

Closest aviation weather report (METAR) to Gordonsville Municipal Airport

Closest report is Orange County Airport, 7.9 nm (14.6 km) NE. Retrieved 2020/08/06 06:35 UTC (0 seconds ago):

KOMH 060635Z AUTO 00000KT 10SM BKN042 OVC120 22/20 A3008 RMK AO2 LTG DSNT N AND W

Closest aviation forecast (TAF) to Gordonsville Municipal Airport

Closest forecast is Charlottesville Albemarle Airport, 13.6 nm (25.2 km) W. Retrieved 2020/08/06 06:30 UTC (0 seconds ago):

TAF KCHO 060529Z 0606/0706 00000KT 6SM -SHRA VCTS OVC025CB FM060800 00000KT 4SM BR BKN008 BKN110 FM061400 05003KT P6SM BKN015 FM061800 06003KT P6SM -SHRA VCTS OVC035CB